createdAt,value
2022-11-24T00:02:09.397Z,73.87
2022-11-24T00:04:39.149Z,73.73
2022-11-24T00:07:08.633Z,73.99
2022-11-24T00:09:38.176Z,74.24
2022-11-24T00:12:07.679Z,74.33
2022-11-24T00:14:37.224Z,74.47
2022-11-24T00:17:06.633Z,74.61
2022-11-24T00:19:36.200Z,74.63
2022-11-24T00:22:05.547Z,74.44
2022-11-24T00:24:35.569Z,74.55
2022-11-24T00:27:05.391Z,75.11
2022-11-24T00:29:34.879Z,75.19
2022-11-24T00:32:07.226Z,74.65
2022-11-24T00:34:36.730Z,74.51
2022-11-24T00:37:06.275Z,75.10
2022-11-24T00:39:35.619Z,75.34
2022-11-24T00:42:05.173Z,75.50
2022-11-24T00:44:34.852Z,76.00
2022-11-24T00:47:05.146Z,75.94
2022-11-24T00:49:34.684Z,76.08
2022-11-24T00:52:04.178Z,76.25
2022-11-24T00:54:34.566Z,76.36
2022-11-24T00:57:04.415Z,76.34
2022-11-24T00:59:33.769Z,76.69
2022-11-24T01:02:04.795Z,77.05
2022-11-24T01:04:36.512Z,77.43
2022-11-24T01:07:08.325Z,77.55
2022-11-24T01:09:39.476Z,77.55
2022-11-24T01:12:10.314Z,77.74
2022-11-24T01:14:41.436Z,77.93
2022-11-24T01:17:11.663Z,78.16
2022-11-24T01:19:42.521Z,78.36
2022-11-24T01:22:14.713Z,78.28
2022-11-24T01:24:45.550Z,78.57
2022-11-24T01:27:15.969Z,78.48
2022-11-24T01:29:46.925Z,78.38
2022-11-24T01:32:17.640Z,78.48
2022-11-24T01:34:48.314Z,78.43
2022-11-24T01:37:19.657Z,78.34
2022-11-24T01:39:50.527Z,78.48
2022-11-24T01:42:21.551Z,78.12
2022-11-24T01:45:30.427Z,78.30
2022-11-24T01:48:03.286Z,78.21
2022-11-24T01:50:36.405Z,78.38
2022-11-24T01:53:07.581Z,78.30
2022-11-24T01:55:41.267Z,77.96
2022-11-24T01:58:17.661Z,78.38
2022-11-24T02:00:48.793Z,78.21
2022-11-24T02:03:24.082Z,78.36
2022-11-24T02:06:03.354Z,78.18
2022-11-24T02:08:43.536Z,78.01
2022-11-24T02:11:14.282Z,77.79
2022-11-24T02:13:46.002Z,77.39
2022-11-24T02:16:16.525Z,77.31
2022-11-24T02:18:47.045Z,77.14
2022-11-24T02:21:18.655Z,76.92
2022-11-24T02:24:07.092Z,76.72
2022-11-24T02:26:50.830Z,77.06
2022-11-24T02:29:22.279Z,76.53
2022-11-24T02:32:00.842Z,76.29
2022-11-24T02:34:31.487Z,76.18
2022-11-24T02:37:02.127Z,76.19
2022-11-24T02:39:32.592Z,77.10
2022-11-24T02:42:08.349Z,77.93
2022-11-24T02:44:45.608Z,77.30
2022-11-24T02:47:16.289Z,78.00
2022-11-24T02:49:46.447Z,77.76
2022-11-24T02:52:17.648Z,76.30
2022-11-24T02:54:47.808Z,74.96
2022-11-24T02:57:18.541Z,74.00
2022-11-24T02:59:48.994Z,73.66
2022-11-24T03:02:19.416Z,73.20
2022-11-24T03:04:50.137Z,73.18
2022-11-24T03:07:20.473Z,72.43
2022-11-24T03:09:51.100Z,71.62
2022-11-24T03:12:22.135Z,70.96
2022-11-24T03:14:53.101Z,70.07
2022-11-24T03:17:23.426Z,69.63
2022-11-24T03:19:53.640Z,69.00
2022-11-24T03:22:23.938Z,67.91
2022-11-24T03:24:55.097Z,67.39
2022-11-24T03:27:25.608Z,66.34
2022-11-24T03:29:56.115Z,64.22
2022-11-24T03:32:26.873Z,63.86
2022-11-24T03:34:57.828Z,63.90
2022-11-24T03:37:28.273Z,60.14
2022-11-24T03:39:58.620Z,59.49
2022-11-24T03:42:28.698Z,60.07
2022-11-24T03:45:04.265Z,58.05
2022-11-24T03:47:46.502Z,58.24
2022-11-24T03:50:16.191Z,59.00
2022-11-24T03:52:45.506Z,59.00
2022-11-24T03:55:15.046Z,58.54
2022-11-24T03:57:44.707Z,57.26
2022-11-24T04:00:14.573Z,56.47
2022-11-24T04:02:44.340Z,55.37
2022-11-24T04:05:13.937Z,55.47
2022-11-24T04:07:43.761Z,55.31
2022-11-24T04:10:13.543Z,55.89
2022-11-24T04:12:45.967Z,55.23
2022-11-24T04:15:20.738Z,55.91
2022-11-24T04:17:51.624Z,55.09
2022-11-24T04:20:21.598Z,53.37
2022-11-24T04:22:53.248Z,53.10
2022-11-24T04:25:22.779Z,52.22
2022-11-24T04:27:54.349Z,52.11
2022-11-24T04:30:27.361Z,51.19
2022-11-24T04:32:58.136Z,49.88
2022-11-24T04:35:27.648Z,49.48
2022-11-24T04:37:57.080Z,48.69
2022-11-24T04:40:26.789Z,47.62
2022-11-24T04:42:57.287Z,47.49
2022-11-24T04:45:26.951Z,47.09
2022-11-24T04:47:56.454Z,46.08
2022-11-24T04:50:26.134Z,46.18
2022-11-24T04:52:55.485Z,45.80
2022-11-24T04:55:25.068Z,43.89
2022-11-24T04:57:54.418Z,43.83
2022-11-24T05:00:24.096Z,43.42
2022-11-24T05:02:53.868Z,44.15
2022-11-24T05:05:24.427Z,44.41
2022-11-24T05:07:54.279Z,44.11
2022-11-24T05:10:38.760Z,44.76
2022-11-24T05:13:17.245Z,44.26
2022-11-24T05:15:46.915Z,44.02
2022-11-24T05:18:17.870Z,44.65
2022-11-24T05:20:47.374Z,43.90
2022-11-24T05:23:18.231Z,44.09
2022-11-24T05:25:48.111Z,44.51
2022-11-24T05:28:18.747Z,45.51
2022-11-24T05:30:48.254Z,45.05
2022-11-24T05:33:24.154Z,44.96
2022-11-24T05:35:54.069Z,44.12
2022-11-24T05:38:24.790Z,44.19
2022-11-24T05:40:54.521Z,44.24
2022-11-24T05:43:23.964Z,43.95
2022-11-24T05:45:53.284Z,43.76
2022-11-24T05:48:23.051Z,43.33
2022-11-24T05:50:59.719Z,43.59
2022-11-24T05:53:29.710Z,43.35
2022-11-24T05:56:01.168Z,43.87
2022-11-24T05:58:30.799Z,43.84
2022-11-24T06:01:02.531Z,42.82
2022-11-24T06:03:32.543Z,43.38
2022-11-24T06:06:02.543Z,43.70
2022-11-24T06:08:32.855Z,43.29
2022-11-24T06:11:23.700Z,43.35
2022-11-24T06:13:53.299Z,41.74
2022-11-24T06:16:23.465Z,41.66
2022-11-24T06:18:53.983Z,41.50
2022-11-24T06:21:23.843Z,41.55
2022-11-24T06:23:53.352Z,41.24
2022-11-24T06:26:23.024Z,40.13
2022-11-24T06:28:52.521Z,39.54
2022-11-24T06:31:22.890Z,39.84
2022-11-24T06:33:52.728Z,38.74
2022-11-24T06:36:23.536Z,39.70
2022-11-24T06:38:53.461Z,39.25
2022-11-24T06:41:24.080Z,39.05
2022-11-24T06:43:53.762Z,39.72
2022-11-24T06:46:23.713Z,39.55
2022-11-24T06:48:54.316Z,38.64
2022-11-24T06:51:24.180Z,38.38
2022-11-24T06:53:53.940Z,38.62
2022-11-24T06:56:24.252Z,39.87
2022-11-24T06:58:55.573Z,39.65
2022-11-24T07:01:27.961Z,38.48
2022-11-24T07:03:59.510Z,37.74
2022-11-24T07:06:29.530Z,38.06
2022-11-24T07:08:59.044Z,37.09
2022-11-24T07:11:28.813Z,37.96
2022-11-24T07:14:00.461Z,37.90
2022-11-24T07:16:30.897Z,38.48
2022-11-24T07:19:01.617Z,38.31
2022-11-24T07:21:32.109Z,38.64
2022-11-24T07:24:01.676Z,39.29
2022-11-24T07:26:31.029Z,39.25
2022-11-24T07:29:00.665Z,39.51
2022-11-24T07:31:30.096Z,39.69
2022-11-24T07:34:01.844Z,39.81
2022-11-24T07:36:31.557Z,38.93
2022-11-24T07:39:01.440Z,39.17
2022-11-24T07:41:31.245Z,39.37
2022-11-24T07:44:00.955Z,39.37
2022-11-24T07:46:30.597Z,38.73
2022-11-24T07:49:00.384Z,38.35
2022-11-24T07:51:29.958Z,37.49
2022-11-24T07:54:03.801Z,37.36
2022-11-24T07:56:33.686Z,37.73
2022-11-24T07:59:03.984Z,36.06
2022-11-24T08:01:37.268Z,35.58
2022-11-24T08:04:09.627Z,35.92
2022-11-24T08:06:43.295Z,34.50
2022-11-24T08:09:16.681Z,34.36
2022-11-24T08:11:46.601Z,33.80
2022-11-24T08:14:16.178Z,33.94
2022-11-24T08:16:46.020Z,34.35
2022-11-24T08:19:15.733Z,34.00
2022-11-24T08:21:45.380Z,34.09
2022-11-24T08:24:16.654Z,34.05
2022-11-24T08:26:46.544Z,34.39
2022-11-24T08:29:16.151Z,35.56
2022-11-24T08:31:45.972Z,34.88
2022-11-24T08:34:15.728Z,35.71
2022-11-24T08:36:45.260Z,35.44
2022-11-24T08:39:15.012Z,35.35
2022-11-24T08:41:44.697Z,35.80
2022-11-24T08:44:17.235Z,36.50
2022-11-24T08:46:47.675Z,36.45
2022-11-24T08:49:19.996Z,36.05
2022-11-24T08:51:51.417Z,34.18
2022-11-24T08:54:22.595Z,33.62
2022-11-24T08:56:52.425Z,33.35
2022-11-24T08:59:21.844Z,32.07
2022-11-24T09:01:51.506Z,31.43
2022-11-24T09:04:21.209Z,31.04
2022-11-24T09:06:51.255Z,31.04
2022-11-24T09:09:21.165Z,30.47
2022-11-24T09:11:50.973Z,30.02
2022-11-24T09:14:20.381Z,28.74
2022-11-24T09:16:50.230Z,29.97
2022-11-24T09:19:19.852Z,29.71
2022-11-24T09:21:50.014Z,29.93
2022-11-24T09:24:19.742Z,29.65
2022-11-24T09:26:49.359Z,30.25
2022-11-24T09:30:13.832Z,30.49
2022-11-24T09:33:01.575Z,29.43
2022-11-24T09:35:31.175Z,28.81
2022-11-24T09:38:00.028Z,29.61
2022-11-24T09:40:29.088Z,30.46
2022-11-24T09:43:08.989Z,30.79
2022-11-24T09:46:04.944Z,30.81
2022-11-24T09:48:45.549Z,31.16
2022-11-24T09:51:17.018Z,30.13
2022-11-24T09:53:55.366Z,30.97
2022-11-24T09:56:30.969Z,30.89
2022-11-24T09:59:25.830Z,31.51
2022-11-24T10:01:56.811Z,32.43
2022-11-24T10:04:35.580Z,32.89
2022-11-24T10:07:39.020Z,32.80
2022-11-24T10:10:25.102Z,32.44
2022-11-24T10:13:21.799Z,31.82
2022-11-24T10:16:16.189Z,32.44
2022-11-24T10:18:45.687Z,32.63
2022-11-24T10:21:37.914Z,31.90
2022-11-24T10:24:29.131Z,31.56
2022-11-24T10:27:16.747Z,32.78
2022-11-24T10:29:50.494Z,31.94
2022-11-24T10:32:32.800Z,32.08
2022-11-24T10:35:16.136Z,32.87
2022-11-24T10:37:51.704Z,31.92
2022-11-24T10:43:24.345Z,32.53
2022-11-24T10:45:53.478Z,32.97
2022-11-24T10:48:27.773Z,33.50
2022-11-24T10:51:17.091Z,33.42
2022-11-24T10:53:47.571Z,32.88
2022-11-24T10:56:16.674Z,33.39
2022-11-24T10:58:45.902Z,33.47
2022-11-24T11:01:15.084Z,32.88
2022-11-24T11:03:51.344Z,33.04
2022-11-24T11:06:25.981Z,33.29
2022-11-24T11:09:10.330Z,33.72
2022-11-24T11:11:41.676Z,33.86
2022-11-24T11:14:16.936Z,34.14
2022-11-24T11:16:58.841Z,34.75
2022-11-24T11:19:49.809Z,34.27
2022-11-24T11:22:32.727Z,34.25
2022-11-24T11:25:21.418Z,34.17
2022-11-24T11:27:51.201Z,34.96
2022-11-24T11:36:17.259Z,35.16
2022-11-24T11:38:48.498Z,35.27
2022-11-24T11:41:38.089Z,35.51
2022-11-24T11:44:27.800Z,36.04
2022-11-24T11:47:00.821Z,36.29
2022-11-24T11:49:29.952Z,36.50
2022-11-24T11:52:30.331Z,36.83
2022-11-24T11:55:36.808Z,36.75
2022-11-24T11:58:44.537Z,37.35
2022-11-24T12:01:32.135Z,39.34
2022-11-24T12:04:49.594Z,38.27
2022-11-24T12:07:21.362Z,38.85
2022-11-24T12:10:17.990Z,39.49
2022-11-24T12:13:08.137Z,39.63
2022-11-24T12:15:56.519Z,39.84
2022-11-24T12:18:59.386Z,40.62
2022-11-24T12:22:01.106Z,40.94
2022-11-24T12:24:46.673Z,41.85
2022-11-24T12:27:29.557Z,41.79
2022-11-24T12:30:07.281Z,42.60
2022-11-24T12:32:52.704Z,43.30
2022-11-24T12:35:31.397Z,43.66
2022-11-24T12:38:15.832Z,43.24
2022-11-24T12:44:52.196Z,44.77
2022-11-24T12:47:32.720Z,46.17
2022-11-24T12:50:19.321Z,46.32
2022-11-24T12:53:12.991Z,46.28
2022-11-24T12:55:43.655Z,47.77
2022-11-24T12:58:27.641Z,48.25
2022-11-24T13:01:16.905Z,48.28
2022-11-24T13:04:04.855Z,48.68
2022-11-24T13:06:51.474Z,49.19
2022-11-24T13:09:21.528Z,49.43
2022-11-24T13:12:14.705Z,49.75
2022-11-24T13:14:47.822Z,50.64
2022-11-24T13:17:47.558Z,50.46
2022-11-24T13:20:22.331Z,51.32
2022-11-24T13:23:00.319Z,50.64
2022-11-24T13:25:37.985Z,50.88
2022-11-24T13:28:07.767Z,51.37
2022-11-24T13:30:37.390Z,50.86
2022-11-24T13:33:16.429Z,51.54
2022-11-24T13:36:05.240Z,51.05
2022-11-24T13:38:54.555Z,50.85
2022-11-24T13:41:38.340Z,51.23
2022-11-24T13:44:16.770Z,51.75
2022-11-24T13:47:23.911Z,52.31
2022-11-24T13:49:53.059Z,52.65
2022-11-24T13:52:43.314Z,53.42
2022-11-24T13:55:16.546Z,54.34
2022-11-24T13:58:01.413Z,54.37
2022-11-24T14:00:36.862Z,54.96
2022-11-24T14:03:29.384Z,55.63
2022-11-24T14:06:00.187Z,55.89
2022-11-24T14:08:34.692Z,55.62
2022-11-24T14:11:05.008Z,55.76
2022-11-24T14:13:35.077Z,56.01
2022-11-24T14:16:22.232Z,56.47
2022-11-24T14:18:53.442Z,56.54
2022-11-24T14:21:54.858Z,57.07
2022-11-24T14:24:39.790Z,57.36
2022-11-24T14:27:19.182Z,57.74
2022-11-24T14:30:00.483Z,57.58
2022-11-24T14:32:30.998Z,57.03
2022-11-24T14:35:00.862Z,57.30
2022-11-24T14:37:30.118Z,57.08
2022-11-24T14:39:59.196Z,57.70
2022-11-24T14:42:29.315Z,58.19
2022-11-24T14:45:05.552Z,56.53
2022-11-24T14:47:46.927Z,56.03
2022-11-24T14:50:20.358Z,55.57
2022-11-24T14:52:58.061Z,56.15
2022-11-24T14:55:32.768Z,56.56
2022-11-24T14:58:03.578Z,57.35
2022-11-24T15:00:34.490Z,56.86
2022-11-24T15:03:03.715Z,56.69
2022-11-24T15:06:00.468Z,56.03
2022-11-24T15:08:38.698Z,56.50
2022-11-24T15:11:09.030Z,56.88
2022-11-24T15:13:41.791Z,56.47
2022-11-24T15:16:19.212Z,56.92
2022-11-24T15:18:50.635Z,57.18
2022-11-24T15:21:35.740Z,57.58
2022-11-24T15:24:18.141Z,58.31
2022-11-24T15:26:48.089Z,58.58
2022-11-24T15:29:17.322Z,59.04
2022-11-24T15:31:51.005Z,59.45
2022-11-24T15:34:21.682Z,59.77
2022-11-24T15:36:50.953Z,59.95
2022-11-24T15:39:20.027Z,60.16
2022-11-24T15:41:49.091Z,60.32
2022-11-24T15:44:18.204Z,60.62
2022-11-24T15:46:47.791Z,61.34
2022-11-24T15:49:16.869Z,61.83
2022-11-24T15:51:48.022Z,62.26
2022-11-24T15:54:20.270Z,63.03
2022-11-24T15:56:49.595Z,63.18
2022-11-24T15:59:20.797Z,63.35
2022-11-24T16:01:51.728Z,63.37
2022-11-24T16:04:20.802Z,63.61
2022-11-24T16:06:51.273Z,63.68
2022-11-24T16:09:22.320Z,63.75
2022-11-24T16:11:51.509Z,64.07
2022-11-24T16:14:21.018Z,64.62
2022-11-24T16:16:50.244Z,64.07
2022-11-24T16:19:19.494Z,65.03
2022-11-24T16:21:52.297Z,64.59
2022-11-24T16:24:21.621Z,64.35
2022-11-24T16:26:53.084Z,64.38
2022-11-24T16:29:24.928Z,65.40
2022-11-24T16:31:57.521Z,65.15
2022-11-24T16:34:33.463Z,65.20
2022-11-24T16:37:02.706Z,65.67
2022-11-24T16:39:32.042Z,65.87
2022-11-24T16:42:02.838Z,66.40
2022-11-24T16:44:32.391Z,66.36
2022-11-24T16:47:03.355Z,66.58
2022-11-24T16:49:33.935Z,66.75
2022-11-24T16:52:03.379Z,67.20
2022-11-24T16:54:33.105Z,67.20
2022-11-24T16:57:02.690Z,67.15
2022-11-24T16:59:32.297Z,67.68
2022-11-24T17:02:01.652Z,67.56
2022-11-24T17:04:30.686Z,67.70
2022-11-24T17:06:59.837Z,67.33
2022-11-24T17:09:28.747Z,67.79
2022-11-24T17:11:57.890Z,67.57
2022-11-24T17:14:26.928Z,67.93
2022-11-24T17:16:57.082Z,67.84
2022-11-24T17:19:26.929Z,68.03
2022-11-24T17:21:55.977Z,67.98
2022-11-24T17:24:25.493Z,68.26
2022-11-24T17:26:55.895Z,67.99
2022-11-24T17:29:25.767Z,67.88
2022-11-24T17:31:54.749Z,67.66
2022-11-24T17:34:25.256Z,67.40
2022-11-24T17:36:55.383Z,67.68
2022-11-24T17:39:28.812Z,67.12
2022-11-24T17:41:58.712Z,66.56
2022-11-24T17:44:33.620Z,66.96
2022-11-24T17:47:08.003Z,66.63
2022-11-24T17:49:37.789Z,66.09
2022-11-24T17:52:08.344Z,66.68
2022-11-24T17:54:46.442Z,66.85
2022-11-24T17:57:18.862Z,66.49
2022-11-24T17:59:48.050Z,66.82
2022-11-24T18:02:17.333Z,66.39
2022-11-24T18:04:46.633Z,66.06
2022-11-24T18:07:15.597Z,66.31
2022-11-24T18:09:45.385Z,66.32
2022-11-24T18:12:14.775Z,66.39
2022-11-24T18:14:43.883Z,66.72
2022-11-24T18:17:13.300Z,67.11
2022-11-24T18:19:42.194Z,66.60
2022-11-24T18:22:11.343Z,66.24
2022-11-24T18:24:40.606Z,66.51
2022-11-24T18:27:10.077Z,66.35
2022-11-24T18:29:39.139Z,66.62
2022-11-24T18:32:08.242Z,66.24
2022-11-24T18:34:38.386Z,66.27
2022-11-24T18:37:08.970Z,65.74
2022-11-24T18:39:38.182Z,66.00
2022-11-24T18:42:07.190Z,66.04
2022-11-24T18:44:38.120Z,66.32
2022-11-24T18:47:07.515Z,66.00
2022-11-24T18:49:36.656Z,65.61
2022-11-24T18:52:05.971Z,64.97
2022-11-24T18:54:35.310Z,64.06
2022-11-24T18:57:04.853Z,64.97
2022-11-24T18:59:34.250Z,65.33
2022-11-24T19:02:03.206Z,64.92
2022-11-24T19:04:33.333Z,65.42
2022-11-24T19:07:03.672Z,65.67
2022-11-24T19:09:33.377Z,65.80
2022-11-24T19:12:10.554Z,65.32
2022-11-24T19:14:40.761Z,64.25
2022-11-24T19:17:10.996Z,64.26
2022-11-24T19:19:40.718Z,63.63
2022-11-24T19:22:11.761Z,64.70
2022-11-24T19:24:43.664Z,66.16
2022-11-24T19:27:16.501Z,66.03
2022-11-24T19:29:47.670Z,66.24
2022-11-24T19:32:18.150Z,65.63
2022-11-24T19:34:51.790Z,66.34
2022-11-24T19:37:24.436Z,66.79
2022-11-24T19:39:55.175Z,66.53
2022-11-24T19:42:24.708Z,66.35
2022-11-24T19:44:56.669Z,66.43
2022-11-24T19:47:30.436Z,66.47
2022-11-24T19:50:10.767Z,66.41
2022-11-24T19:52:39.903Z,67.14
2022-11-24T19:55:09.431Z,66.74
2022-11-24T19:57:38.437Z,67.01
2022-11-24T20:00:08.621Z,67.29
2022-11-24T20:02:37.928Z,67.48
2022-11-24T20:05:08.082Z,67.40
2022-11-24T20:07:45.221Z,67.47
2022-11-24T20:10:16.328Z,67.18
2022-11-24T20:12:49.457Z,67.42
2022-11-24T20:15:20.303Z,67.33
2022-11-24T20:17:49.503Z,68.17
2022-11-24T20:20:21.302Z,68.20
2022-11-24T20:22:52.183Z,67.83
2022-11-24T20:25:21.644Z,67.80
2022-11-24T20:27:55.447Z,68.29
2022-11-24T20:30:27.927Z,68.22
2022-11-24T20:32:59.854Z,68.08
2022-11-24T20:35:30.630Z,68.05
2022-11-24T20:38:02.089Z,68.36
2022-11-24T20:40:33.900Z,68.47
2022-11-24T20:43:03.517Z,68.87
2022-11-24T20:45:32.523Z,68.74
2022-11-24T20:48:04.301Z,69.01
2022-11-24T20:50:34.535Z,69.17
2022-11-24T20:53:03.803Z,69.56
2022-11-24T20:55:36.261Z,69.56
2022-11-24T20:58:24.611Z,69.66
2022-11-24T21:00:54.226Z,69.70
2022-11-24T21:03:23.492Z,70.25
2022-11-24T21:05:56.804Z,70.29
2022-11-24T21:08:26.007Z,70.48
2022-11-24T21:10:59.370Z,70.74
2022-11-24T21:13:29.818Z,70.70
2022-11-24T21:15:59.022Z,71.12
2022-11-24T21:18:28.287Z,71.41
2022-11-24T21:21:00.782Z,71.95
2022-11-24T21:23:30.158Z,71.93
2022-11-24T21:26:10.314Z,71.92
2022-11-24T21:28:45.197Z,72.42
2022-11-24T21:31:16.791Z,72.50
2022-11-24T21:33:53.384Z,72.54
2022-11-24T21:36:25.566Z,72.57
2022-11-24T21:38:56.993Z,72.95
2022-11-24T21:41:28.632Z,72.94
2022-11-24T21:43:57.975Z,73.06
2022-11-24T21:46:27.118Z,73.48
2022-11-24T21:48:56.230Z,73.69
2022-11-24T21:51:25.611Z,73.53
2022-11-24T21:53:55.258Z,73.74
2022-11-24T21:56:25.459Z,74.01
2022-11-24T21:58:56.967Z,73.73
2022-11-24T22:01:29.206Z,73.24
2022-11-24T22:03:58.376Z,73.63
2022-11-24T22:06:27.498Z,73.72
2022-11-24T22:08:56.788Z,73.99
2022-11-24T22:11:27.239Z,73.96
2022-11-24T22:13:56.301Z,73.93
2022-11-24T22:16:26.852Z,74.33
2022-11-24T22:18:56.096Z,74.33
2022-11-24T22:21:31.589Z,74.67
2022-11-24T22:24:04.095Z,74.68
2022-11-24T22:26:32.896Z,74.24
2022-11-24T22:29:02.202Z,74.08
2022-11-24T22:31:33.868Z,74.55
2022-11-24T22:34:02.988Z,74.35
2022-11-24T22:36:32.438Z,74.40
2022-11-24T22:39:04.278Z,74.61
2022-11-24T22:41:36.239Z,74.57
2022-11-24T22:44:06.245Z,74.31
2022-11-24T22:46:35.284Z,74.63
2022-11-24T22:49:04.530Z,75.13
2022-11-24T22:51:36.014Z,74.94
2022-11-24T22:54:06.979Z,74.91
2022-11-24T22:56:36.159Z,74.78
2022-11-24T22:59:05.587Z,75.23
2022-11-24T23:01:35.403Z,75.48
2022-11-24T23:04:04.875Z,75.48
2022-11-24T23:06:35.029Z,75.57
2022-11-24T23:09:06.255Z,75.99
2022-11-24T23:11:41.383Z,75.92
2022-11-24T23:14:19.187Z,75.73
2022-11-24T23:16:48.549Z,75.33
2022-11-24T23:19:17.791Z,75.19
2022-11-24T23:21:46.854Z,75.44
2022-11-24T23:24:15.855Z,75.27
2022-11-24T23:26:45.083Z,74.40
2022-11-24T23:29:14.402Z,73.62
2022-11-24T23:31:43.683Z,73.69
2022-11-24T23:34:12.855Z,73.37
2022-11-24T23:36:42.621Z,73.22
2022-11-24T23:39:15.379Z,73.42
2022-11-24T23:41:44.519Z,73.47
2022-11-24T23:44:13.564Z,73.34
2022-11-24T23:46:42.622Z,73.27
2022-11-24T23:49:12.071Z,73.16
2022-11-24T23:51:43.110Z,73.44
2022-11-24T23:54:12.571Z,73.65
2022-11-24T23:56:41.684Z,73.19
2022-11-24T23:59:13.036Z,73.00
